Time;durP1;ratioP1;P1;durP2;ratioP2;P2;SDS_P1;SDS_P2;PMS_P1;PMS_P2;Temp;Humidity;BMP_temperature;BMP_pressure;BME280_temperature;BME280_humidity;BME280_pressure;Samples;Min_cycle;Max_cycle;Signal;HPM_P1;HPM_P2
2023/05/17 00:02:08;;;;;;;0.93;0.50;;;;;;;;;;5056495;28;20040;-59
2023/05/17 00:04:34;;;;;;;1.27;0.50;;;;;;;;;;5056963;28;20355;-59
2023/05/17 00:07:00;;;;;;;2.38;0.57;;;;;;;;;;5056678;28;20474;-59
2023/05/17 00:09:26;;;;;;;1.73;0.60;;;;;;;;;;5056627;28;20026;-59
2023/05/17 00:11:52;;;;;;;3.63;0.60;;;;;;;;;;5056823;28;20027;-60
2023/05/17 00:14:18;;;;;;;2.55;0.98;;;;;;;;;;5056586;28;20495;-59
2023/05/17 00:16:44;;;;;;;1.80;0.50;;;;;;;;;;5056465;28;20443;-59
2023/05/17 00:19:10;;;;;;;6.75;0.57;;;;;;;;;;5056218;28;20036;-59
2023/05/17 00:21:36;;;;;;;2.22;0.93;;;;;;;;;;5056137;28;20447;-59
2023/05/17 00:24:02;;;;;;;2.25;0.80;;;;;;;;;;5056328;28;20040;-59
2023/05/17 00:26:28;;;;;;;1.88;1.00;;;;;;;;;;5056404;28;20039;-59
2023/05/17 00:28:53;;;;;;;1.95;1.00;;;;;;;;;;5055980;28;20029;-59
2023/05/17 00:31:19;;;;;;;2.28;1.08;;;;;;;;;;5055985;28;20078;-59
2023/05/17 00:33:46;;;;;;;1.98;0.98;;;;;;;;;;5054829;28;20025;-59
2023/05/17 00:36:12;;;;;;;2.25;1.10;;;;;;;;;;5056394;28;20060;-59
2023/05/17 00:38:38;;;;;;;2.42;0.82;;;;;;;;;;5055868;28;20076;-59
2023/05/17 00:41:04;;;;;;;1.92;0.80;;;;;;;;;;5055839;28;20025;-59
2023/05/17 00:43:30;;;;;;;2.75;0.90;;;;;;;;;;5056083;28;20525;-59
2023/05/17 00:45:56;;;;;;;2.60;1.00;;;;;;;;;;5055772;28;20150;-59
2023/05/17 00:48:24;;;;;;;1.15;0.68;;;;;;;;;;5055694;28;20043;-59
2023/05/17 00:50:50;;;;;;;4.57;1.13;;;;;;;;;;5056150;28;20037;-59
2023/05/17 00:53:18;;;;;;;2.95;0.93;;;;;;;;;;5055492;28;20056;-59
2023/05/17 00:55:44;;;;;;;2.90;0.82;;;;;;;;;;5056045;28;20029;-59
2023/05/17 00:58:10;;;;;;;1.58;0.73;;;;;;;;;;5055935;28;20106;-59
2023/05/17 01:00:37;;;;;;;1.65;0.77;;;;;;;;;;5055965;28;20080;-59
2023/05/17 01:03:02;;;;;;;1.65;0.80;;;;;;;;;;5055683;28;20048;-59
2023/05/17 01:05:29;;;;;;;2.05;0.93;;;;;;;;;;5056187;28;20029;-59
2023/05/17 01:07:55;;;;;;;1.30;0.73;;;;;;;;;;5055800;28;20400;-59
2023/05/17 01:10:27;;;;;;;1.98;0.75;;;;;;;;;;5055716;28;20028;-59
2023/05/17 01:13:09;;;;;;;2.05;0.70;;;;;;;;;;5054928;28;20422;-59
2023/05/17 01:15:38;;;;;;;1.60;0.90;;;;;;;;;;5055669;28;20048;-59
2023/05/17 01:18:07;;;;;;;1.10;0.63;;;;;;;;;;5055600;28;20029;-59
2023/05/17 01:20:45;;;;;;;5.03;1.17;;;;;;;;;;5055086;28;20028;-59
2023/05/17 01:23:30;;;;;;;2.20;0.77;;;;;;;;;;5055040;28;20070;-59
2023/05/17 01:25:59;;;;;;;3.20;0.98;;;;;;;;;;5055004;28;20024;-59
2023/05/17 01:28:26;;;;;;;2.53;0.93;;;;;;;;;;5054820;28;20068;-59
2023/05/17 01:30:53;;;;;;;1.92;0.80;;;;;;;;;;5054823;28;20031;-59
2023/05/17 01:33:19;;;;;;;2.60;0.45;;;;;;;;;;5055096;28;20029;-59
2023/05/17 01:35:45;;;;;;;7.05;1.17;;;;;;;;;;5055355;28;20364;-59
2023/05/17 01:38:11;;;;;;;1.90;0.75;;;;;;;;;;5054699;28;20028;-59
2023/05/17 01:40:40;;;;;;;1.77;0.75;;;;;;;;;;5055477;28;20041;-59
2023/05/17 01:43:24;;;;;;;2.03;0.90;;;;;;;;;;5054968;28;20431;-59
2023/05/17 01:45:59;;;;;;;0.93;0.50;;;;;;;;;;5054669;28;20029;-59
2023/05/17 01:48:31;;;;;;;1.70;0.70;;;;;;;;;;5055337;28;20041;-59
2023/05/17 01:50:58;;;;;;;0.88;0.40;;;;;;;;;;5055025;28;20025;-59
2023/05/17 01:53:27;;;;;;;2.78;0.98;;;;;;;;;;5054390;28;20104;-59
2023/05/17 01:55:57;;;;;;;2.47;0.60;;;;;;;;;;5054615;28;20044;-59
2023/05/17 01:58:25;;;;;;;1.10;0.70;;;;;;;;;;5054554;28;20064;-59
2023/05/17 02:00:54;;;;;;;2.88;0.73;;;;;;;;;;5054582;28;20107;-59
2023/05/17 02:03:20;;;;;;;2.90;0.93;;;;;;;;;;5054786;28;20025;-59
2023/05/17 02:05:46;;;;;;;2.60;0.60;;;;;;;;;;5054524;28;20383;-59
2023/05/17 02:08:12;;;;;;;4.10;1.00;;;;;;;;;;5054240;28;20029;-59
2023/05/17 02:10:38;;;;;;;1.65;0.80;;;;;;;;;;5054078;28;20494;-59
2023/05/17 02:13:04;;;;;;;1.83;1.00;;;;;;;;;;5053862;28;20056;-59
2023/05/17 02:15:30;;;;;;;4.68;1.02;;;;;;;;;;5054093;28;20116;-59
2023/05/17 02:17:56;;;;;;;2.30;0.80;;;;;;;;;;5053930;28;20024;-59
2023/05/17 02:20:22;;;;;;;4.68;0.80;;;;;;;;;;5054031;28;20052;-59
2023/05/17 02:22:48;;;;;;;2.33;0.90;;;;;;;;;;5054226;28;20025;-59
2023/05/17 02:25:14;;;;;;;1.70;0.68;;;;;;;;;;5054195;28;20029;-59
2023/05/17 02:27:40;;;;;;;1.23;0.52;;;;;;;;;;5054354;28;20028;-59
2023/05/17 02:30:07;;;;;;;2.00;0.95;;;;;;;;;;5053879;28;20398;-59
2023/05/17 02:32:33;;;;;;;1.42;0.65;;;;;;;;;;5053799;28;20410;-59
2023/05/17 02:34:59;;;;;;;2.75;0.70;;;;;;;;;;5053865;28;20036;-59
2023/05/17 02:37:25;;;;;;;3.63;0.70;;;;;;;;;;5054524;28;20020;-59
2023/05/17 02:39:51;;;;;;;1.55;0.60;;;;;;;;;;5053819;28;20039;-59
2023/05/17 02:42:17;;;;;;;2.33;0.93;;;;;;;;;;5053329;28;20124;-59
2023/05/17 02:44:43;;;;;;;1.30;0.70;;;;;;;;;;5054245;28;20036;-59
2023/05/17 02:47:09;;;;;;;2.03;0.70;;;;;;;;;;5053980;28;20478;-59
2023/05/17 02:49:35;;;;;;;3.83;0.80;;;;;;;;;;5053626;28;20028;-59
2023/05/17 02:52:01;;;;;;;1.73;0.85;;;;;;;;;;5053601;28;20029;-59
2023/05/17 02:54:27;;;;;;;3.13;1.08;;;;;;;;;;5053517;28;20152;-59
2023/05/17 02:56:53;;;;;;;2.22;1.13;;;;;;;;;;5055839;28;20056;-59
2023/05/17 02:59:19;;;;;;;1.98;0.55;;;;;;;;;;5057749;28;20029;-59
2023/05/17 03:01:45;;;;;;;1.77;0.57;;;;;;;;;;5057707;28;20021;-59
2023/05/17 03:04:11;;;;;;;2.25;0.77;;;;;;;;;;5058188;28;20032;-59
2023/05/17 03:06:37;;;;;;;5.53;0.98;;;;;;;;;;5058166;28;20033;-59
2023/05/17 03:09:03;;;;;;;2.60;0.98;;;;;;;;;;5058331;28;20082;-60
2023/05/17 03:11:29;;;;;;;2.13;0.98;;;;;;;;;;5056488;28;20037;-59
2023/05/17 03:13:55;;;;;;;2.35;0.85;;;;;;;;;;5057829;28;20040;-59
2023/05/17 03:16:21;;;;;;;2.15;1.00;;;;;;;;;;5057592;28;20033;-59
2023/05/17 03:18:47;;;;;;;2.08;0.82;;;;;;;;;;5057349;28;20040;-59
2023/05/17 03:21:13;;;;;;;1.42;0.60;;;;;;;;;;5057310;28;20021;-59
2023/05/17 03:23:39;;;;;;;2.70;1.13;;;;;;;;;;5057556;28;20025;-59
2023/05/17 03:26:05;;;;;;;1.65;0.80;;;;;;;;;;5057687;28;20025;-59
2023/05/17 03:28:31;;;;;;;2.42;1.15;;;;;;;;;;5057129;28;20024;-59
2023/05/17 03:30:57;;;;;;;2.47;1.08;;;;;;;;;;5057916;28;20502;-59
2023/05/17 03:33:23;;;;;;;2.08;1.05;;;;;;;;;;5057466;28;20032;-60
2023/05/17 03:35:49;;;;;;;2.42;0.90;;;;;;;;;;5057176;28;20025;-59
2023/05/17 03:38:15;;;;;;;3.60;1.10;;;;;;;;;;5057026;28;20032;-59
2023/05/17 03:40:41;;;;;;;2.45;1.10;;;;;;;;;;5057161;28;20103;-60
2023/05/17 03:43:07;;;;;;;2.55;1.27;;;;;;;;;;5056651;28;20025;-59
2023/05/17 03:45:33;;;;;;;3.75;2.05;;;;;;;;;;5057297;28;20028;-59
2023/05/17 03:48:02;;;;;;;2.15;1.00;;;;;;;;;;5056393;28;20029;-59
2023/05/17 03:50:28;;;;;;;4.40;1.40;;;;;;;;;;5056176;28;20032;-59
2023/05/17 03:52:54;;;;;;;1.77;1.05;;;;;;;;;;5056768;28;20029;-59
2023/05/17 03:55:20;;;;;;;3.75;0.70;;;;;;;;;;5057001;28;20040;-59
2023/05/17 03:57:46;;;;;;;2.83;1.63;;;;;;;;;;5056968;28;20087;-59
2023/05/17 04:00:13;;;;;;;2.60;1.00;;;;;;;;;;5056595;28;20521;-59
2023/05/17 04:02:39;;;;;;;1.85;1.00;;;;;;;;;;5056276;28;20032;-59
2023/05/17 04:05:05;;;;;;;5.63;1.27;;;;;;;;;;5056172;28;20060;-59
2023/05/17 04:07:31;;;;;;;4.15;1.08;;;;;;;;;;5056448;28;20043;-59
2023/05/17 04:10:01;;;;;;;3.53;1.20;;;;;;;;;;5056452;28;20025;-59
2023/05/17 04:12:27;;;;;;;3.28;1.38;;;;;;;;;;5056555;28;20367;-59
2023/05/17 04:14:53;;;;;;;2.85;1.00;;;;;;;;;;5056352;28;20056;-59
2023/05/17 04:17:19;;;;;;;2.38;1.10;;;;;;;;;;5056299;28;20025;-59
2023/05/17 04:19:45;;;;;;;4.45;0.82;;;;;;;;;;5056071;28;20467;-59
2023/05/17 04:22:11;;;;;;;1.67;1.02;;;;;;;;;;5056316;28;20111;-60
2023/05/17 04:24:37;;;;;;;3.30;1.13;;;;;;;;;;5056214;28;20485;-59
2023/05/17 04:27:04;;;;;;;3.20;0.93;;;;;;;;;;5056786;28;20029;-59
2023/05/17 04:29:30;;;;;;;6.47;1.13;;;;;;;;;;5056383;28;20028;-59
2023/05/17 04:31:56;;;;;;;1.92;0.90;;;;;;;;;;5056052;28;20033;-59
2023/05/17 04:34:22;;;;;;;2.70;1.15;;;;;;;;;;5056321;28;20032;-59
2023/05/17 04:36:48;;;;;;;1.95;0.88;;;;;;;;;;5054449;28;20036;-59
2023/05/17 04:39:14;;;;;;;2.88;1.23;;;;;;;;;;5055569;28;20044;-60
2023/05/17 04:41:40;;;;;;;1.40;0.82;;;;;;;;;;5055865;28;20039;-60
2023/05/17 04:44:06;;;;;;;1.75;1.05;;;;;;;;;;5055825;28;20447;-60
2023/05/17 04:46:33;;;;;;;2.03;1.38;;;;;;;;;;5056672;28;20067;-60
2023/05/17 04:48:59;;;;;;;2.08;1.00;;;;;;;;;;5056245;28;20040;-60
2023/05/17 04:51:25;;;;;;;3.10;0.80;;;;;;;;;;5056144;28;20055;-60
2023/05/17 04:53:52;;;;;;;1.55;0.98;;;;;;;;;;5055493;28;20390;-60
2023/05/17 04:56:18;;;;;;;2.75;1.00;;;;;;;;;;5055996;28;20407;-60
2023/05/17 04:58:44;;;;;;;5.50;1.40;;;;;;;;;;5055784;28;20033;-60
2023/05/17 05:01:10;;;;;;;1.38;0.60;;;;;;;;;;5055506;28;20104;-60
2023/05/17 05:03:36;;;;;;;1.45;0.70;;;;;;;;;;5055946;28;20395;-60
2023/05/17 05:06:03;;;;;;;2.55;1.13;;;;;;;;;;5055965;28;20029;-60
2023/05/17 05:08:29;;;;;;;2.60;1.30;;;;;;;;;;5055637;28;20033;-60
2023/05/17 05:10:55;;;;;;;4.72;1.15;;;;;;;;;;5055195;28;20052;-60
2023/05/17 05:13:22;;;;;;;3.05;0.98;;;;;;;;;;5054966;28;20072;-60
2023/05/17 05:15:48;;;;;;;1.77;0.80;;;;;;;;;;5055746;28;20021;-60
2023/05/17 05:18:14;;;;;;;1.65;0.75;;;;;;;;;;5054973;28;20039;-60
2023/05/17 05:20:40;;;;;;;1.88;1.00;;;;;;;;;;5054931;28;20063;-60
2023/05/17 05:23:05;;;;;;;4.72;1.13;;;;;;;;;;5055361;28;20079;-60
2023/05/17 05:25:32;;;;;;;2.28;1.00;;;;;;;;;;5054784;28;20033;-60
2023/05/17 05:27:58;;;;;;;1.75;0.90;;;;;;;;;;5055068;28;20051;-60
2023/05/17 05:30:24;;;;;;;1.17;0.70;;;;;;;;;;5055284;28;20104;-60
2023/05/17 05:32:50;;;;;;;2.22;1.15;;;;;;;;;;5055623;28;20029;-60
2023/05/17 05:35:16;;;;;;;3.42;1.13;;;;;;;;;;5054883;28;20032;-60
2023/05/17 05:37:43;;;;;;;4.22;1.30;;;;;;;;;;5055064;28;20463;-60
2023/05/17 05:40:09;;;;;;;2.78;1.33;;;;;;;;;;5055367;28;20036;-60
2023/05/17 05:42:35;;;;;;;2.50;1.30;;;;;;;;;;5054772;28;20031;-60
2023/05/17 05:45:02;;;;;;;2.53;1.17;;;;;;;;;;5054953;28;20024;-60
2023/05/17 05:47:27;;;;;;;3.80;0.95;;;;;;;;;;5054570;28;20029;-60
2023/05/17 05:49:53;;;;;;;2.72;1.00;;;;;;;;;;5054279;28;20031;-60
2023/05/17 05:52:19;;;;;;;3.85;1.48;;;;;;;;;;5054596;28;20025;-60
2023/05/17 05:54:46;;;;;;;2.13;1.02;;;;;;;;;;5054883;28;20027;-60
2023/05/17 05:57:12;;;;;;;1.98;1.10;;;;;;;;;;5054915;28;20402;-60
2023/05/17 05:59:37;;;;;;;2.10;0.80;;;;;;;;;;5054466;28;20037;-60
2023/05/17 06:02:04;;;;;;;4.03;1.10;;;;;;;;;;5054129;28;20474;-60
2023/05/17 06:04:30;;;;;;;2.22;1.27;;;;;;;;;;5054642;28;20033;-60
2023/05/17 06:06:56;;;;;;;5.72;1.35;;;;;;;;;;5054558;28;20029;-60
2023/05/17 06:09:22;;;;;;;2.72;1.33;;;;;;;;;;5054553;28;20028;-60
2023/05/17 06:11:48;;;;;;;2.10;1.10;;;;;;;;;;5054474;28;20107;-60
2023/05/17 06:14:14;;;;;;;2.40;1.00;;;;;;;;;;5054066;28;20490;-62
2023/05/17 06:16:40;;;;;;;2.85;1.05;;;;;;;;;;5054470;28;20044;-61
2023/05/17 06:19:06;;;;;;;1.92;1.00;;;;;;;;;;5054042;28;20400;-60
2023/05/17 06:21:32;;;;;;;2.42;1.05;;;;;;;;;;5053783;28;20029;-60
2023/05/17 06:23:58;;;;;;;4.97;1.73;;;;;;;;;;5054657;28;20107;-60
2023/05/17 06:26:24;;;;;;;2.45;1.52;;;;;;;;;;5054885;28;20111;-60
2023/05/17 06:28:50;;;;;;;3.08;1.33;;;;;;;;;;5054637;28;20036;-60
2023/05/17 06:31:16;;;;;;;4.75;1.85;;;;;;;;;;5053031;28;20029;-60
2023/05/17 06:33:42;;;;;;;4.13;1.52;;;;;;;;;;5053739;28;20112;-61
2023/05/17 06:36:08;;;;;;;2.60;1.33;;;;;;;;;;5053941;28;20076;-60
2023/05/17 06:38:34;;;;;;;3.55;1.80;;;;;;;;;;5054429;28;20048;-60
2023/05/17 06:41:00;;;;;;;2.42;1.50;;;;;;;;;;5053989;28;20056;-61
2023/05/17 06:43:26;;;;;;;2.30;1.30;;;;;;;;;;5054135;28;20455;-60
2023/05/17 06:45:52;;;;;;;3.22;1.95;;;;;;;;;;5054363;28;20025;-60
2023/05/17 06:48:18;;;;;;;3.13;1.67;;;;;;;;;;5053669;28;20112;-61
2023/05/17 06:50:44;;;;;;;3.17;1.50;;;;;;;;;;5053636;28;20111;-60
2023/05/17 06:53:10;;;;;;;4.63;1.92;;;;;;;;;;5053577;28;20109;-59
2023/05/17 06:55:36;;;;;;;2.83;1.58;;;;;;;;;;5053630;28;20059;-59
2023/05/17 06:58:02;;;;;;;4.32;1.73;;;;;;;;;;5053538;28;20025;-59
2023/05/17 07:00:28;;;;;;;2.33;1.42;;;;;;;;;;5053636;28;20033;-59
2023/05/17 07:02:54;;;;;;;3.90;1.70;;;;;;;;;;5053804;28;20025;-58
2023/05/17 07:05:22;;;;;;;7.32;2.15;;;;;;;;;;5053486;28;20069;-58
2023/05/17 07:07:49;;;;;;;5.97;1.70;;;;;;;;;;5053624;28;20067;-58
2023/05/17 07:10:15;;;;;;;3.95;1.85;;;;;;;;;;5053543;28;20029;-58
2023/05/17 07:12:41;;;;;;;2.58;1.50;;;;;;;;;;5054005;28;20073;-59
2023/05/17 07:15:07;;;;;;;3.92;1.77;;;;;;;;;;5053816;28;20115;-58
2023/05/17 07:17:33;;;;;;;5.25;1.35;;;;;;;;;;5053369;28;20025;-57
2023/05/17 07:19:59;;;;;;;4.25;1.63;;;;;;;;;;5053520;28;20444;-58
2023/05/17 07:22:25;;;;;;;4.32;1.83;;;;;;;;;;5053484;28;20029;-59
2023/05/17 07:24:51;;;;;;;6.45;2.40;;;;;;;;;;5053486;28;20505;-59
2023/05/17 07:27:17;;;;;;;3.33;1.70;;;;;;;;;;5053801;28;20409;-59
2023/05/17 07:29:43;;;;;;;4.25;2.08;;;;;;;;;;5053806;28;20029;-59
2023/05/17 07:32:09;;;;;;;6.80;2.10;;;;;;;;;;5053343;28;20028;-59
2023/05/17 07:34:35;;;;;;;3.47;1.55;;;;;;;;;;5053638;28;20021;-58
2023/05/17 07:37:01;;;;;;;3.63;2.30;;;;;;;;;;5053518;28;20029;-57
2023/05/17 07:39:27;;;;;;;4.45;2.00;;;;;;;;;;5053559;28;20063;-59
2023/05/17 07:41:53;;;;;;;4.38;2.25;;;;;;;;;;5052968;28;20029;-57
2023/05/17 07:44:20;;;;;;;4.10;2.65;;;;;;;;;;5057040;28;20436;-58
2023/05/17 07:46:46;;;;;;;3.65;1.75;;;;;;;;;;5057183;28;20033;-59
2023/05/17 07:49:13;;;;;;;3.75;1.85;;;;;;;;;;5056722;28;20024;-59
2023/05/17 07:51:39;;;;;;;4.85;1.77;;;;;;;;;;5057156;28;20040;-59
2023/05/17 07:54:05;;;;;;;8.40;1.85;;;;;;;;;;5056751;28;20029;-59
2023/05/17 07:56:32;;;;;;;3.50;2.13;;;;;;;;;;5056632;28;20086;-59
2023/05/17 07:58:58;;;;;;;7.63;2.10;;;;;;;;;;5057299;28;20021;-59
2023/05/17 08:01:24;;;;;;;2.88;1.88;;;;;;;;;;5057666;28;20060;-59
2023/05/17 08:03:50;;;;;;;4.63;2.20;;;;;;;;;;5056586;28;20037;-59
2023/05/17 08:06:17;;;;;;;4.22;2.10;;;;;;;;;;5057410;28;20432;-59
2023/05/17 08:08:43;;;;;;;3.38;2.15;;;;;;;;;;5056530;28;20033;-59
2023/05/17 08:11:09;;;;;;;3.88;1.83;;;;;;;;;;5057074;28;20348;-59
2023/05/17 08:13:35;;;;;;;2.78;1.88;;;;;;;;;;5056186;28;20471;-59
2023/05/17 08:16:02;;;;;;;3.30;1.95;;;;;;;;;;5056974;28;20025;-59
2023/05/17 08:18:29;;;;;;;5.78;2.08;;;;;;;;;;5056221;28;20483;-59
2023/05/17 08:20:55;;;;;;;3.75;1.77;;;;;;;;;;5057102;28;20033;-59
2023/05/17 08:23:21;;;;;;;6.85;2.42;;;;;;;;;;5056246;28;20455;-59
2023/05/17 08:25:47;;;;;;;4.57;2.53;;;;;;;;;;5056330;28;20474;-59
2023/05/17 08:28:13;;;;;;;5.72;2.53;;;;;;;;;;5056808;28;20041;-59
2023/05/17 08:30:40;;;;;;;2.90;1.98;;;;;;;;;;5056161;28;20071;-59
2023/05/17 08:33:06;;;;;;;5.22;2.03;;;;;;;;;;5056083;28;20108;-59
2023/05/17 08:35:32;;;;;;;5.43;2.03;;;;;;;;;;5056364;28;20078;-59
2023/05/17 08:37:58;;;;;;;5.60;2.30;;;;;;;;;;5055983;28;20025;-59
2023/05/17 08:40:24;;;;;;;3.88;2.25;;;;;;;;;;5055908;28;20108;-59
2023/05/17 08:42:50;;;;;;;3.80;2.00;;;;;;;;;;5055905;28;20026;-59
2023/05/17 08:45:17;;;;;;;3.35;2.05;;;;;;;;;;5056067;28;20025;-59
2023/05/17 08:47:45;;;;;;;3.33;1.90;;;;;;;;;;5055688;28;20029;-59
2023/05/17 08:50:11;;;;;;;2.90;2.17;;;;;;;;;;5055679;28;20463;-59
2023/05/17 08:52:37;;;;;;;3.35;1.90;;;;;;;;;;5055756;28;20061;-59
2023/05/17 08:55:04;;;;;;;5.15;1.95;;;;;;;;;;5054679;28;20375;-59
2023/05/17 08:57:31;;;;;;;5.55;3.00;;;;;;;;;;5055672;28;20075;-57
2023/05/17 08:59:59;;;;;;;3.63;2.00;;;;;;;;;;5055568;28;20029;-58
2023/05/17 09:02:26;;;;;;;3.95;2.30;;;;;;;;;;5055451;28;20480;-58
2023/05/17 09:04:54;;;;;;;4.18;2.22;;;;;;;;;;5055920;28;20037;-57
2023/05/17 09:07:20;;;;;;;2.45;1.60;;;;;;;;;;5055988;28;20033;-58
2023/05/17 09:09:46;;;;;;;4.15;2.10;;;;;;;;;;5055401;28;20032;-58
2023/05/17 09:12:13;;;;;;;6.38;2.35;;;;;;;;;;5056010;28;20040;-58
2023/05/17 09:14:38;;;;;;;4.10;2.40;;;;;;;;;;5055546;28;20041;-58
2023/05/17 09:17:05;;;;;;;4.40;2.13;;;;;;;;;;5055380;28;20059;-58
2023/05/17 09:19:31;;;;;;;4.53;2.22;;;;;;;;;;5055181;28;20075;-57
2023/05/17 09:21:59;;;;;;;3.72;2.13;;;;;;;;;;5055391;28;20052;-58
2023/05/17 09:24:29;;;;;;;2.83;1.80;;;;;;;;;;5055687;28;20021;-58
2023/05/17 09:27:01;;;;;;;2.70;1.90;;;;;;;;;;5055369;28;20112;-57
2023/05/17 09:29:29;;;;;;;9.55;1.98;;;;;;;;;;5055692;28;20459;-58
2023/05/17 09:31:55;;;;;;;3.05;2.25;;;;;;;;;;5055163;28;20029;-57
2023/05/17 09:34:24;;;;;;;3.45;1.98;;;;;;;;;;5054876;28;20040;-57
2023/05/17 09:36:50;;;;;;;3.85;2.03;;;;;;;;;;5054844;28;20083;-58
2023/05/17 09:39:16;;;;;;;5.18;2.30;;;;;;;;;;5055299;28;20060;-58
2023/05/17 09:41:47;;;;;;;2.80;1.90;;;;;;;;;;5055107;28;20021;-57
2023/05/17 09:44:14;;;;;;;3.55;2.00;;;;;;;;;;5054201;28;20040;-57
2023/05/17 09:46:46;;;;;;;6.45;2.17;;;;;;;;;;5054948;28;20021;-57
2023/05/17 09:49:13;;;;;;;2.40;1.70;;;;;;;;;;5054879;28;20017;-58
2023/05/17 09:51:39;;;;;;;3.90;2.30;;;;;;;;;;5054374;28;20056;-58
2023/05/17 09:54:09;;;;;;;3.83;2.40;;;;;;;;;;5053960;28;20057;-58
2023/05/17 09:56:35;;;;;;;4.30;2.08;;;;;;;;;;5054891;28;20455;-58
2023/05/17 09:59:01;;;;;;;4.78;1.85;;;;;;;;;;5054853;28;20078;-58
2023/05/17 10:01:28;;;;;;;4.03;2.42;;;;;;;;;;5054783;28;20455;-58
2023/05/17 10:03:55;;;;;;;4.32;2.25;;;;;;;;;;5054472;28;20071;-58
2023/05/17 10:06:22;;;;;;;5.32;1.80;;;;;;;;;;5054395;28;20028;-57
2023/05/17 10:08:52;;;;;;;4.68;2.22;;;;;;;;;;5054033;28;20139;-58
2023/05/17 10:11:21;;;;;;;2.70;1.88;;;;;;;;;;5054853;28;20414;-57
2023/05/17 10:13:52;;;;;;;5.05;1.75;;;;;;;;;;5053579;28;20041;-57
2023/05/17 10:16:18;;;;;;;;;;;;;;;;;;5054445;28;20493;-58
2023/05/17 10:18:44;;;;;;;4.95;2.00;;;;;;;;;;5054434;28;19908;-57
2023/05/17 10:21:11;;;;;;;4.10;1.85;;;;;;;;;;5053970;28;20037;-57
2023/05/17 10:23:38;;;;;;;3.40;1.75;;;;;;;;;;5053969;28;20025;-58
2023/05/17 10:26:05;;;;;;;2.85;1.75;;;;;;;;;;5054309;28;20029;-57
2023/05/17 10:28:32;;;;;;;5.00;1.70;;;;;;;;;;5053757;28;20036;-58
2023/05/17 10:30:58;;;;;;;3.20;2.05;;;;;;;;;;5054180;28;20032;-58
2023/05/17 10:33:26;;;;;;;4.03;1.80;;;;;;;;;;5053893;28;20122;-58
2023/05/17 10:35:53;;;;;;;5.93;2.45;;;;;;;;;;5053878;28;20032;-58
2023/05/17 10:38:19;;;;;;;4.18;2.05;;;;;;;;;;5054089;28;20029;-58
2023/05/17 10:40:45;;;;;;;3.50;1.92;;;;;;;;;;5052503;28;20035;-58
2023/05/17 10:43:12;;;;;;;3.55;2.25;;;;;;;;;;5053792;28;20025;-57
2023/05/17 10:45:38;;;;;;;3.47;2.13;;;;;;;;;;5054378;28;20036;-57
2023/05/17 10:48:05;;;;;;;5.53;2.22;;;;;;;;;;5054268;28;20396;-58
2023/05/17 10:50:31;;;;;;;4.88;2.30;;;;;;;;;;5054184;28;20348;-58
2023/05/17 10:52:58;;;;;;;3.78;1.98;;;;;;;;;;5054237;28;20028;-58
2023/05/17 10:55:24;;;;;;;4.35;1.88;;;;;;;;;;5053646;28;20387;-58
2023/05/17 10:58:08;;;;;;;4.45;1.80;;;;;;;;;;5054180;28;20443;-58
2023/05/17 11:00:38;;;;;;;3.67;1.80;;;;;;;;;;5053593;28;20040;-58
2023/05/17 11:03:23;;;;;;;3.30;1.90;;;;;;;;;;5053868;28;20025;-58
2023/05/17 11:06:07;;;;;;;4.60;1.88;;;;;;;;;;5053927;28;20112;-59
2023/05/17 11:08:33;;;;;;;3.35;1.70;;;;;;;;;;5053762;28;20032;-58
2023/05/17 11:11:09;;;;;;;3.67;2.10;;;;;;;;;;5053934;28;20059;-58
2023/05/17 11:13:35;;;;;;;2.95;2.38;;;;;;;;;;5053286;28;20060;-58
2023/05/17 11:16:04;;;;;;;4.63;2.25;;;;;;;;;;5053803;28;20359;-58
2023/05/17 11:18:46;;;;;;;3.38;2.28;;;;;;;;;;5055823;28;20037;-58
2023/05/17 11:21:15;;;;;;;2.92;1.70;;;;;;;;;;5056121;28;20525;-58
2023/05/17 11:23:45;;;;;;;2.97;1.85;;;;;;;;;;5056999;28;20463;-58
2023/05/17 11:26:33;;;;;;;5.57;2.28;;;;;;;;;;5058148;28;20033;-58
2023/05/17 11:29:01;;;;;;;3.47;2.20;;;;;;;;;;5057068;28;20029;-58
2023/05/17 11:31:31;;;;;;;3.83;2.33;;;;;;;;;;5057094;28;20456;-58
2023/05/17 11:33:58;;;;;;;3.50;2.17;;;;;;;;;;5057294;28;20032;-58
2023/05/17 11:36:24;;;;;;;2.83;1.75;;;;;;;;;;5057603;28;20025;-58
2023/05/17 11:39:09;;;;;;;4.63;1.77;;;;;;;;;;5056859;28;20071;-58
2023/05/17 11:41:36;;;;;;;4.07;2.03;;;;;;;;;;5057273;28;20029;-58
2023/05/17 11:44:02;;;;;;;3.55;2.25;;;;;;;;;;5057021;28;20044;-58
2023/05/17 11:46:29;;;;;;;5.28;2.13;;;;;;;;;;5057344;28;20028;-59
2023/05/17 11:48:55;;;;;;;3.53;1.95;;;;;;;;;;5056829;28;20061;-58
2023/05/17 11:51:21;;;;;;;3.83;2.22;;;;;;;;;;5057046;28;20114;-58
2023/05/17 11:53:48;;;;;;;5.20;2.22;;;;;;;;;;5057202;28;20021;-58
2023/05/17 11:56:14;;;;;;;5.65;2.15;;;;;;;;;;5057142;28;20394;-58
2023/05/17 11:58:41;;;;;;;4.00;2.13;;;;;;;;;;5056752;28;20075;-58
2023/05/17 12:01:07;;;;;;;4.03;1.90;;;;;;;;;;5056800;28;20036;-58
2023/05/17 12:03:34;;;;;;;4.75;2.10;;;;;;;;;;5057139;28;20426;-58
2023/05/17 12:06:04;;;;;;;3.30;1.50;;;;;;;;;;5056645;28;20035;-58
2023/05/17 12:08:31;;;;;;;3.75;2.33;;;;;;;;;;5056515;28;20029;-58
2023/05/17 12:10:58;;;;;;;3.15;1.92;;;;;;;;;;5056302;28;20059;-58
2023/05/17 12:13:27;;;;;;;3.25;1.77;;;;;;;;;;5056312;28;20084;-58
2023/05/17 12:15:55;;;;;;;2.50;1.45;;;;;;;;;;5056315;28;20021;-58
2023/05/17 12:18:22;;;;;;;4.95;2.10;;;;;;;;;;5056861;28;20150;-58
2023/05/17 12:20:54;;;;;;;5.13;2.03;;;;;;;;;;5056352;28;20025;-58
2023/05/17 12:23:27;;;;;;;2.72;1.98;;;;;;;;;;5056826;28;20031;-58
2023/05/17 12:26:01;;;;;;;2.38;1.50;;;;;;;;;;5056824;28;20556;-58
2023/05/17 12:28:27;;;;;;;3.83;2.50;;;;;;;;;;5055663;28;20033;-59
2023/05/17 12:30:56;;;;;;;3.58;1.67;;;;;;;;;;5055412;28;20055;-59
2023/05/17 12:33:22;;;;;;;5.30;2.83;;;;;;;;;;5056110;28;20459;-59
2023/05/17 12:35:48;;;;;;;2.88;1.77;;;;;;;;;;5056672;28;20029;-59
2023/05/17 12:38:15;;;;;;;2.78;2.08;;;;;;;;;;5055774;28;20037;-59
2023/05/17 12:40:40;;;;;;;4.32;2.33;;;;;;;;;;5054379;28;20079;-58
2023/05/17 12:43:08;;;;;;;2.60;1.50;;;;;;;;;;5056102;28;20029;-59
2023/05/17 12:45:34;;;;;;;3.63;2.25;;;;;;;;;;5055867;28;20108;-60
2023/05/17 12:48:00;;;;;;;3.38;2.33;;;;;;;;;;5056147;28;20103;-57
2023/05/17 12:50:30;;;;;;;4.18;2.25;;;;;;;;;;5055741;28;20112;-58
2023/05/17 12:52:56;;;;;;;3.22;1.88;;;;;;;;;;5055750;28;20086;-58
2023/05/17 12:55:23;;;;;;;2.95;1.83;;;;;;;;;;5055150;28;20056;-58
2023/05/17 12:57:52;;;;;;;2.67;1.40;;;;;;;;;;5055619;28;20410;-58
2023/05/17 13:00:18;;;;;;;3.65;2.13;;;;;;;;;;5055437;28;20035;-58
2023/05/17 13:02:44;;;;;;;5.32;2.45;;;;;;;;;;5055565;28;20033;-59
2023/05/17 13:05:23;;;;;;;3.65;2.20;;;;;;;;;;5055338;28;20032;-59
2023/05/17 13:07:49;;;;;;;3.15;1.77;;;;;;;;;;5056164;28;20036;-59
2023/05/17 13:10:21;;;;;;;4.32;2.15;;;;;;;;;;5055699;28;20443;-59
2023/05/17 13:12:54;;;;;;;3.50;2.05;;;;;;;;;;5055843;28;20021;-59
2023/05/17 13:15:20;;;;;;;4.10;2.05;;;;;;;;;;5055738;28;20041;-59
2023/05/17 13:17:49;;;;;;;4.10;1.85;;;;;;;;;;5054786;28;20041;-59
2023/05/17 13:20:15;;;;;;;4.03;1.88;;;;;;;;;;5055160;28;20057;-59
2023/05/17 13:22:45;;;;;;;4.70;2.65;;;;;;;;;;5055601;28;20059;-59
2023/05/17 13:25:11;;;;;;;3.07;1.87;;;;;;;;;;5055098;28;20379;-59
2023/05/17 13:27:37;;;;;;;3.45;1.92;;;;;;;;;;5055040;28;20029;-59
2023/05/17 13:30:04;;;;;;;3.13;1.95;;;;;;;;;;5055006;28;20033;-59
2023/05/17 13:32:30;;;;;;;2.95;1.63;;;;;;;;;;5054956;28;20033;-59
2023/05/17 13:34:56;;;;;;;3.80;1.33;;;;;;;;;;5054742;28;20102;-59
2023/05/17 13:37:22;;;;;;;3.72;1.98;;;;;;;;;;5055365;28;20486;-59
2023/05/17 13:39:48;;;;;;;4.55;2.55;;;;;;;;;;5054269;28;20033;-59
2023/05/17 13:42:14;;;;;;;3.40;1.92;;;;;;;;;;5054895;28;20371;-59
2023/05/17 13:44:40;;;;;;;4.85;1.88;;;;;;;;;;5054694;28;20032;-59
2023/05/17 13:47:07;;;;;;;3.45;2.30;;;;;;;;;;5055475;28;20053;-59
2023/05/17 13:49:33;;;;;;;3.47;1.80;;;;;;;;;;5054637;28;20037;-59
2023/05/17 13:51:59;;;;;;;3.80;2.10;;;;;;;;;;5054511;28;20094;-59
2023/05/17 13:54:25;;;;;;;3.50;1.92;;;;;;;;;;5054998;28;20056;-59
2023/05/17 13:56:53;;;;;;;3.13;2.00;;;;;;;;;;5054406;28;20032;-59
2023/05/17 13:59:19;;;;;;;3.42;1.98;;;;;;;;;;5054702;28;20068;-59
2023/05/17 14:01:45;;;;;;;5.90;1.92;;;;;;;;;;5054660;28;20025;-59
2023/05/17 14:04:11;;;;;;;4.45;2.00;;;;;;;;;;5054276;28;20032;-59
2023/05/17 14:06:38;;;;;;;2.80;1.65;;;;;;;;;;5054492;28;20021;-59
2023/05/17 14:09:05;;;;;;;3.03;2.00;;;;;;;;;;5054633;28;20021;-59
2023/05/17 14:11:31;;;;;;;3.38;2.25;;;;;;;;;;5054866;28;20036;-59
2023/05/17 14:13:57;;;;;;;3.33;1.73;;;;;;;;;;5054205;28;20056;-59
2023/05/17 14:16:23;;;;;;;5.07;1.88;;;;;;;;;;5054112;28;20037;-59
2023/05/17 14:18:49;;;;;;;3.40;2.00;;;;;;;;;;5054833;28;20134;-59
2023/05/17 14:21:16;;;;;;;2.88;2.00;;;;;;;;;;5053990;28;20129;-59
2023/05/17 14:23:42;;;;;;;3.85;2.00;;;;;;;;;;5054182;28;20108;-59
2023/05/17 14:26:09;;;;;;;3.58;1.83;;;;;;;;;;5054402;28;20491;-59
2023/05/17 14:28:37;;;;;;;3.20;2.20;;;;;;;;;;5053916;28;20053;-58
2023/05/17 14:31:04;;;;;;;3.05;1.80;;;;;;;;;;5053776;28;20036;-57
2023/05/17 14:33:30;;;;;;;3.92;2.42;;;;;;;;;;5054431;28;20025;-57
2023/05/17 14:35:56;;;;;;;3.22;1.60;;;;;;;;;;5053938;28;20082;-57
2023/05/17 14:38:22;;;;;;;3.22;1.95;;;;;;;;;;5054037;28;20033;-57
2023/05/17 14:40:48;;;;;;;3.40;1.88;;;;;;;;;;5054273;28;20040;-57
2023/05/17 14:43:14;;;;;;;3.92;2.03;;;;;;;;;;5052515;28;20043;-58